Time;durP1;ratioP1;P1;durP2;ratioP2;P2;SDS_P1;SDS_P2;PMS_P1;PMS_P2;Temp;Humidity;BMP_temperature;BMP_pressure;BME280_temperature;BME280_humidity;BME280_pressure;Samples;Min_cycle;Max_cycle;Signal;HPM_P1;HPM_P2
2021/09/26 00:00:44;;;;;;;;;;;;;;;12.03;100.00;101176.88;4994028;28;19957;-72
2021/09/26 00:03:10;;;;;;;;;;;;;;;11.98;100.00;101177.22;4992640;28;20396;-72
2021/09/26 00:05:36;;;;;;;;;;;;;;;11.91;100.00;101175.13;4992581;28;19980;-72
2021/09/26 00:08:02;;;;;;;;;;;;;;;11.86;100.00;101184.47;4993787;28;20020;-71
2021/09/26 00:10:29;;;;;;;;;;;;;;;11.83;100.00;101189.31;4993754;28;20369;-71
2021/09/26 00:12:56;;;;;;;;;;;;;;;11.80;100.00;101190.44;4993886;28;20352;-72
2021/09/26 00:15:23;;;;;;;;;;;;;;;11.77;100.00;101190.69;4993719;28;19925;-72
2021/09/26 00:17:50;;;;;;;;;;;;;;;11.74;100.00;101185.47;4993714;28;20012;-72
2021/09/26 00:20:17;;;;;;;;;;;;;;;11.76;100.00;101188.94;4992551;28;20033;-72
2021/09/26 00:22:44;;;;;;;;;;;;;;;11.77;100.00;101189.78;4993599;28;19980;-72
2021/09/26 00:25:11;;;;;;;;;;;;;;;11.73;100.00;101184.59;4993549;28;19932;-72
2021/09/26 00:27:37;;;;;;;;;;;;;;;11.73;100.00;101184.59;4992210;28;19929;-72
2021/09/26 00:30:06;;;;;;;;;;;;;;;11.75;100.00;101183.63;4993407;28;20024;-72
2021/09/26 00:32:32;;;;;;;;;;;;;;;11.69;100.00;101182.22;4993080;28;19926;-72
2021/09/26 00:34:59;;;;;;;;;;;;;;;11.61;100.00;101181.97;4993478;28;19930;-72
2021/09/26 00:37:25;;;;;;;;;;;;;;;11.49;100.00;101184.69;4995477;28;19948;-72
2021/09/26 00:39:51;;;;;;;;;;;;;;;11.41;100.00;101183.53;4992951;28;20408;-72
2021/09/26 00:42:18;;;;;;;;;;;;;;;11.36;100.00;101182.03;4993123;28;19926;-72
2021/09/26 00:44:44;;;;;;;;;;;;;;;11.32;100.00;101180.53;4992035;28;20029;-72
2021/09/26 00:47:12;;;;;;;;;;;;;;;11.26;100.00;101180.16;4992959;28;20420;-72
2021/09/26 00:49:38;;;;;;;;;;;;;;;11.22;100.00;101174.97;4992959;28;19953;-72
2021/09/26 00:52:04;;;;;;;;;;;;;;;11.19;100.00;101175.19;4991744;28;20357;-72
2021/09/26 00:54:31;;;;;;;;;;;;;;;11.14;100.00;101182.81;4992899;28;20324;-72
2021/09/26 00:56:58;;;;;;;;;;;;;;;11.08;100.00;101174.25;4993008;28;19972;-72
2021/09/26 00:59:24;;;;;;;;;;;;;;;11.03;100.00;101180.06;4991597;28;19933;-72
2021/09/26 01:01:50;;;;;;;;;;;;;;;11.00;100.00;101185.75;4992723;28;20031;-72
2021/09/26 01:04:18;;;;;;;;;;;;;;;10.97;100.00;101189.56;4992988;28;20021;-72
2021/09/26 01:06:48;;;;;;;;;;;;;;;10.97;100.00;101183.22;4992782;28;19964;-72
2021/09/26 01:09:21;;;;;;;;;;;;;;;10.97;100.00;101185.94;4992815;28;20373;-72
2021/09/26 01:11:51;;;;;;;;;;;;;;;10.95;100.00;101187.94;4992658;28;19929;-72
2021/09/26 01:14:20;;;;;;;;;;;;;;;10.94;100.00;101187.03;4991414;28;19926;-72
2021/09/26 01:16:57;;;;;;;;;;;;;;;10.96;100.00;101189.66;4992783;28;19973;-72
2021/09/26 01:19:41;;;;;;;;;;;;;;;10.95;100.00;101194.22;4992504;28;19929;-72
2021/09/26 01:22:11;;;;;;;;;;;;;;;10.95;100.00;101185.22;4992600;28;19965;-72
2021/09/26 01:24:49;;;;;;;;;;;;;;;10.99;100.00;101184.00;4992522;28;19973;-72
2021/09/26 01:27:36;;;;;;;;;;;;;;;11.08;100.00;101187.84;4992390;28;20036;-72
2021/09/26 01:30:17;;;;;;;;;;;;;;;11.16;100.00;101191.72;4991193;28;20321;-72
2021/09/26 01:32:47;;;;;;;;;;;;;;;11.26;100.00;101189.16;4992407;28;20372;-72
2021/09/26 01:35:15;;;;;;;;;;;;;;;11.37;100.00;101191.94;4992477;28;19984;-72
2021/09/26 01:37:42;;;;;;;;;;;;;;;11.48;100.00;101191.09;4992173;28;19930;-72
2021/09/26 01:40:12;;;;;;;;;;;;;;;11.57;100.00;101189.50;4992362;28;19930;-72
2021/09/26 01:42:39;;;;;;;;;;;;;;;11.66;100.00;101190.63;4992130;28;19965;-72
2021/09/26 01:45:08;;;;;;;;;;;;;;;11.75;100.00;101195.34;4992357;28;20298;-72
2021/09/26 01:47:37;;;;;;;;;;;;;;;11.81;100.00;101196.72;4992039;28;20032;-72
2021/09/26 01:50:07;;;;;;;;;;;;;;;11.85;100.00;101195.50;4991595;28;21529;-72
2021/09/26 01:52:35;;;;;;;;;;;;;;;11.87;100.00;101191.66;4992054;28;19926;-72
2021/09/26 01:55:02;;;;;;;;;;;;;;;11.92;100.00;101187.69;4992378;28;19957;-72
2021/09/26 01:57:29;;;;;;;;;;;;;;;11.93;100.00;101193.00;4994593;28;19972;-72
2021/09/26 01:59:57;;;;;;;;;;;;;;;11.98;100.00;101195.41;4998590;28;20024;-72
2021/09/26 02:02:25;;;;;;;;;;;;;;;12.01;100.00;101203.31;4998527;28;19980;-72
2021/09/26 02:04:53;;;;;;;;;;;;;;;12.04;100.00;101194.94;4997384;28;19968;-72
2021/09/26 02:07:21;;;;;;;;;;;;;;;12.07;100.00;101194.69;4998596;28;20041;-72
2021/09/26 02:09:48;;;;;;;;;;;;;;;12.11;100.00;101193.44;4997420;28;19976;-72
2021/09/26 02:12:16;;;;;;;;;;;;;;;12.10;100.00;101197.16;4998590;28;19926;-72
2021/09/26 02:14:42;;;;;;;;;;;;;;;12.09;100.00;101200.00;4998542;28;19932;-72
2021/09/26 02:17:09;;;;;;;;;;;;;;;12.10;100.00;101196.28;4998413;28;19979;-72
2021/09/26 02:19:36;;;;;;;;;;;;;;;12.08;100.00;101193.69;4998646;28;19933;-72
2021/09/26 02:22:03;;;;;;;;;;;;;;;12.12;100.00;101199.75;4998436;28;20018;-72
2021/09/26 02:24:32;;;;;;;;;;;;;;;12.14;100.00;101206.78;4998439;28;19933;-72
2021/09/26 02:26:59;;;;;;;;;;;;;;;12.20;100.00;101208.19;4998245;28;19973;-72
2021/09/26 02:29:25;;;;;;;;;;;;;;;12.23;100.00;101203.34;4998450;28;19972;-72
2021/09/26 02:31:51;;;;;;;;;;;;;;;12.27;100.00;101206.69;5000875;28;20451;-72
2021/09/26 02:34:17;;;;;;;;;;;;;;;12.34;100.00;101209.78;4998426;28;19980;-72
2021/09/26 02:36:44;;;;;;;;;;;;;;;12.40;100.00;101209.28;4998522;28;20366;-72
2021/09/26 02:39:12;;;;;;;;;;;;;;;12.45;100.00;101208.91;4997204;28;19965;-72
2021/09/26 02:41:41;;;;;;;;;;;;;;;12.47;100.00;101215.94;4998204;28;19984;-72
2021/09/26 02:44:13;;;;;;;;;;;;;;;12.51;100.00;101214.72;4998446;28;19961;-72
2021/09/26 02:46:40;;;;;;;;;;;;;;;12.54;100.00;101211.72;4998369;28;20399;-72
2021/09/26 02:49:07;;;;;;;;;;;;;;;12.59;100.00;101210.47;4998336;28;20385;-72
2021/09/26 02:51:34;;;;;;;;;;;;;;;12.60;100.00;101217.66;4998069;28;20419;-72
2021/09/26 02:54:02;;;;;;;;;;;;;;;12.61;100.00;101216.69;4997342;28;19968;-72
2021/09/26 02:56:28;;;;;;;;;;;;;;;12.65;100.00;101218.16;4997960;28;19961;-72
2021/09/26 02:58:59;;;;;;;;;;;;;;;12.68;100.00;101207.00;4998249;28;19965;-72
2021/09/26 03:01:26;;;;;;;;;;;;;;;12.72;100.00;101203.06;4997953;28;19965;-72
2021/09/26 03:03:52;;;;;;;;;;;;;;;12.78;100.00;101205.25;4998164;28;19926;-72
2021/09/26 03:06:19;;;;;;;;;;;;;;;12.80;100.00;101210.56;4997985;28;19961;-72
2021/09/26 03:08:45;;;;;;;;;;;;;;;12.82;100.00;101208.59;4995708;28;20385;-72
2021/09/26 03:11:11;;;;;;;;;;;;;;;12.88;100.00;101214.41;4995011;28;20016;-72
2021/09/26 03:13:37;;;;;;;;;;;;;;;12.94;100.00;101202.13;4995031;28;19957;-72
2021/09/26 03:16:07;;;;;;;;;;;;;;;12.96;100.00;101210.16;4994933;28;19949;-72
2021/09/26 03:18:33;;;;;;;;;;;;;;;12.97;100.00;101206.44;4994980;28;19933;-72
2021/09/26 03:21:00;;;;;;;;;;;;;;;12.97;100.00;101206.44;4994933;28;20024;-72
2021/09/26 03:23:26;;;;;;;;;;;;;;;12.99;100.00;101208.06;4995001;28;19948;-72
2021/09/26 03:25:53;;;;;;;;;;;;;;;13.00;100.00;101209.78;4994620;28;20022;-72
2021/09/26 03:28:19;;;;;;;;;;;;;;;12.97;100.00;101209.16;4994809;28;19926;-72
2021/09/26 03:30:46;;;;;;;;;;;;;;;12.94;100.00;101204.00;4994711;28;20378;-72
2021/09/26 03:33:13;;;;;;;;;;;;;;;12.98;100.00;101208.19;4994736;28;20476;-72
2021/09/26 03:35:40;;;;;;;;;;;;;;;12.98;100.00;101208.19;4994715;28;20020;-72
2021/09/26 03:38:06;;;;;;;;;;;;;;;12.98;100.00;101202.72;4994574;28;19972;-72
2021/09/26 03:40:33;;;;;;;;;;;;;;;12.98;100.00;101197.28;4993073;28;19926;-72
2021/09/26 03:43:00;;;;;;;;;;;;;;;12.96;100.00;101196.53;4994355;28;19980;-72
2021/09/26 03:45:26;;;;;;;;;;;;;;;12.94;100.00;101199.41;4994414;28;19926;-72
2021/09/26 03:47:52;;;;;;;;;;;;;;;12.94;100.00;101196.66;4994320;28;19957;-72
2021/09/26 03:50:20;;;;;;;;;;;;;;;12.97;100.00;101201.00;4994316;28;19953;-72
2021/09/26 03:52:46;;;;;;;;;;;;;;;12.98;100.00;101206.31;4994377;28;19965;-72
2021/09/26 03:55:13;;;;;;;;;;;;;;;12.97;100.00;101201.00;4994193;28;20016;-72
2021/09/26 03:57:39;;;;;;;;;;;;;;;12.94;100.00;101209.44;4993964;28;19929;-73
2021/09/26 04:00:07;;;;;;;;;;;;;;;12.91;100.00;101210.56;4993943;28;20028;-72
2021/09/26 04:02:37;;;;;;;;;;;;;;;12.90;100.00;101204.22;4994139;28;19936;-72
2021/09/26 04:05:04;;;;;;;;;;;;;;;12.89;100.00;101204.34;4992993;28;20024;-72
2021/09/26 04:07:32;;;;;;;;;;;;;;;12.86;100.00;101200.03;4993550;28;19926;-72
2021/09/26 04:09:58;;;;;;;;;;;;;;;12.85;100.00;101202.88;4992533;28;20353;-72
2021/09/26 04:12:24;;;;;;;;;;;;;;;12.81;100.00;101196.81;4992457;28;19981;-72
2021/09/26 04:14:51;;;;;;;;;;;;;;;12.78;100.00;101198.94;4993995;28;19926;-72
2021/09/26 04:17:17;;;;;;;;;;;;;;;12.75;100.00;101197.34;4993700;28;19992;-72
2021/09/26 04:19:43;;;;;;;;;;;;;;;12.74;100.00;101201.06;4993329;28;19925;-72
2021/09/26 04:22:10;;;;;;;;;;;;;;;12.72;100.00;101201.19;4993639;28;19926;-72
2021/09/26 04:24:37;;;;;;;;;;;;;;;12.71;100.00;101204.03;4993479;28;19953;-72
2021/09/26 04:27:04;;;;;;;;;;;;;;;12.72;100.00;101201.19;4993685;28;20024;-72
2021/09/26 04:29:30;;;;;;;;;;;;;;;12.73;100.00;101199.31;4993408;28;20025;-72
2021/09/26 04:31:56;;;;;;;;;;;;;;;12.75;100.00;101200.06;4996025;28;20358;-72
2021/09/26 04:34:26;;;;;;;;;;;;;;;12.76;100.00;101203.66;4993449;28;19968;-72
2021/09/26 04:36:52;;;;;;;;;;;;;;;12.78;100.00;101202.53;4992980;28;19977;-72
2021/09/26 04:39:18;;;;;;;;;;;;;;;12.81;100.00;101210.44;4993380;28;19965;-72
2021/09/26 04:41:46;;;;;;;;;;;;;;;12.86;100.00;101221.81;4993272;28;19926;-72
2021/09/26 04:44:12;;;;;;;;;;;;;;;12.87;100.00;101218.09;4993512;28;19969;-72
2021/09/26 04:46:38;;;;;;;;;;;;;;;12.88;100.00;101217.13;4993052;28;19972;-72
2021/09/26 04:49:05;;;;;;;;;;;;;;;12.87;100.00;101212.66;4991894;28;19981;-71
2021/09/26 04:51:31;;;;;;;;;;;;;;;12.87;100.00;101206.34;4994602;28;20448;-71
2021/09/26 04:53:57;;;;;;;;;;;;;;;12.88;100.00;101208.06;5007698;28;19980;-71
2021/09/26 04:56:24;;;;;;;;;;;;;;;12.85;100.00;101214.66;5011236;28;20036;-71
2021/09/26 04:58:51;;;;;;;;;;;;;;;12.81;100.00;101202.25;5004813;28;20037;-71
2021/09/26 05:01:18;;;;;;;;;;;;;;;12.80;100.00;101200.56;4992596;28;19965;-71
2021/09/26 05:03:44;;;;;;;;;;;;;;;12.76;100.00;101204.53;4999984;28;19926;-72
2021/09/26 05:06:11;;;;;;;;;;;;;;;12.75;100.00;101208.25;5009541;28;20024;-72
2021/09/26 05:08:38;;;;;;;;;;;;;;;12.79;100.00;101212.44;4992556;28;19925;-72
2021/09/26 05:11:04;;;;;;;;;;;;;;;12.83;100.00;101216.63;4993708;28;19971;-72
2021/09/26 05:13:30;;;;;;;;;;;;;;;12.85;100.00;101209.22;4992510;28;20005;-72
2021/09/26 05:15:58;;;;;;;;;;;;;;;12.89;100.00;101216.13;4992698;28;20358;-72
2021/09/26 05:18:24;;;;;;;;;;;;;;;12.92;100.00;101217.75;4992386;28;19925;-72
2021/09/26 05:20:52;;;;;;;;;;;;;;;13.00;100.00;101215.25;4992628;28;19930;-72
2021/09/26 05:23:19;;;;;;;;;;;;;;;13.11;100.00;101217.06;4991662;28;20605;-72
2021/09/26 05:25:45;;;;;;;;;;;;;;;13.17;100.00;101219.25;4992443;28;19957;-72
2021/09/26 05:28:11;;;;;;;;;;;;;;;13.25;100.00;101223.19;4991970;28;19968;-72
2021/09/26 05:30:37;;;;;;;;;;;;;;;13.32;100.00;101219.84;4992024;28;19965;-72
2021/09/26 05:33:05;;;;;;;;;;;;;;;13.38;100.00;101215.75;4991402;28;20428;-71
2021/09/26 05:35:32;;;;;;;;;;;;;;;13.50;100.00;101225.59;4991516;28;20385;-71
2021/09/26 05:37:58;;;;;;;;;;;;;;;13.64;100.00;101220.81;4991921;28;20016;-72
2021/09/26 05:40:25;;;;;;;;;;;;;;;13.75;100.00;101218.03;4992045;28;20036;-71
2021/09/26 05:42:52;;;;;;;;;;;;;;;13.86;100.00;101220.66;4991884;28;19986;-72
2021/09/26 05:45:18;;;;;;;;;;;;;;;13.94;100.00;101216.41;4992384;28;19974;-71
2021/09/26 05:47:44;;;;;;;;;;;;;;;14.04;100.00;101217.31;4991600;28;19977;-71
2021/09/26 05:50:12;;;;;;;;;;;;;;;14.14;100.00;101212.78;4990981;28;20352;-71
2021/09/26 05:52:38;;;;;;;;;;;;;;;14.29;100.00;101216.00;4991370;28;20432;-69
2021/09/26 05:55:05;;;;;;;;;;;;;;;14.45;100.00;101214.66;4991577;28;20029;-71
2021/09/26 05:57:31;;;;;;;;;;;;;;;14.65;100.00;101218.34;4991980;28;20017;-71
2021/09/26 05:59:59;;;;;;;;;;;;;;;14.83;100.00;101210.31;5000836;28;19965;-70
2021/09/26 06:02:27;;;;;;;;;;;;;;;14.99;100.00;101204.28;4990682;28;19932;-71
2021/09/26 06:04:53;;;;;;;;;;;;;;;15.10;100.00;101204.19;4993090;28;20381;-70
2021/09/26 06:07:21;;;;;;;;;;;;;;;15.20;100.00;101209.66;4995041;28;20016;-71
2021/09/26 06:09:47;;;;;;;;;;;;;;;15.28;100.00;101212.53;5011727;28;19968;-71
2021/09/26 06:12:13;;;;;;;;;;;;;;;15.36;100.00;101212.66;5009855;28;19975;-70
2021/09/26 06:14:40;;;;;;;;;;;;;;;15.44;100.00;101214.69;5011575;28;19929;-71
2021/09/26 06:17:07;;;;;;;;;;;;;;;15.53;100.00;101215.69;5009126;28;20024;-70
2021/09/26 06:19:33;;;;;;;;;;;;;;;15.61;100.00;101212.25;5010778;28;20024;-69
2021/09/26 06:22:00;;;;;;;;;;;;;;;15.70;100.00;101219.53;5009591;28;19940;-69
2021/09/26 06:24:28;;;;;;;;;;;;;;;15.72;100.00;101217.53;5000071;28;20293;-69
2021/09/26 06:26:54;;;;;;;;;;;;;;;15.80;100.00;101217.69;4996254;28;19965;-70
2021/09/26 06:29:20;;;;;;;;;;;;;;;15.85;100.00;101220.84;4991777;28;20016;-69
2021/09/26 06:31:48;;;;;;;;;;;;;;;15.90;100.00;101218.53;4993953;28;20444;-69
2021/09/26 06:34:14;;;;;;;;;;;;;;;15.99;100.00;101215.94;4993156;28;19930;-70
2021/09/26 06:36:42;;;;;;;;;;;;;;;16.02;100.00;101212.88;5002991;28;20035;-70
2021/09/26 06:39:08;;;;;;;;;;;;;;;16.08;100.00;101215.03;5013233;28;19929;-70
2021/09/26 06:41:36;;;;;;;;;;;;;;;16.14;100.00;101214.44;5011927;28;19965;-67
2021/09/26 06:44:03;;;;;;;;;;;;;;;16.28;100.00;101202.13;5007334;28;19925;-67
2021/09/26 06:46:29;;;;;;;;;;;;;;;16.53;100.00;101214.28;5013450;28;19964;-67
2021/09/26 06:48:56;;;;;;;;;;;;;;;16.61;100.00;101205.31;5009062;28;19961;-67
2021/09/26 06:51:22;;;;;;;;;;;;;;;16.70;100.00;101206.25;5008791;28;20180;-67
2021/09/26 06:53:49;;;;;;;;;;;;;;;16.77;100.00;101198.28;5013266;28;20033;-67
2021/09/26 06:56:15;;;;;;;;;;;;;;;16.84;100.00;101193.91;5009493;28;19926;-67
2021/09/26 06:58:42;;;;;;;;;;;;;;;17.22;100.00;101197.41;4998759;28;20031;-67
2021/09/26 07:01:10;;;;;;;;;;;;;;;17.50;100.00;101192.66;5014276;28;20044;-67
2021/09/26 07:03:37;;;;;;;;;;;;;;;17.55;100.00;101187.56;5002128;28;19926;-67
2021/09/26 07:06:03;;;;;;;;;;;;;;;17.53;100.00;101188.75;5004065;28;19929;-67
2021/09/26 07:08:29;;;;;;;;;;;;;;;17.93;100.00;101187.34;5003159;28;20032;-67
2021/09/26 07:10:56;;;;;;;;;;;;;;;18.82;100.00;101171.44;4994223;28;20016;-67
2021/09/26 07:13:22;;;;;;;;;;;;;;;19.45;100.00;101174.63;4995645;28;20025;-67
2021/09/26 07:15:49;;;;;;;;;;;;;;;20.07;100.00;101167.72;4996526;28;19961;-67
2021/09/26 07:18:16;;;;;;;;;;;;;;;20.50;100.00;101162.72;5006046;28;20052;-67
2021/09/26 07:20:42;;;;;;;;;;;;;;;21.13;100.00;101159.94;5001007;28;19968;-68
2021/09/26 07:23:09;;;;;;;;;;;;;;;21.63;100.00;101159.56;4994797;28;20381;-68
2021/09/26 07:25:35;;;;;;;;;;;;;;;21.38;100.00;101157.84;4994700;28;19976;-68
2021/09/26 07:28:02;;;;;;;;;;;;;;;21.41;100.00;101153.84;5012700;28;20024;-67
2021/09/26 07:30:28;;;;;;;;;;;;;;;21.68;100.00;101168.16;5012330;28;19925;-71
2021/09/26 07:32:56;;;;;;;;;;;;;;;21.80;100.00;101168.56;5014309;28;19930;-69
2021/09/26 07:35:22;;;;;;;;;;;;;;;21.82;100.00;101161.78;5009750;28;19976;-69
2021/09/26 07:37:49;;;;;;;;;;;;;;;21.66;100.00;101170.22;4998706;28;20028;-69
2021/09/26 07:40:15;;;;;;;;;;;;;;;21.77;100.00;101172.53;5013310;28;20388;-70
2021/09/26 07:42:41;;;;;;;;;;;;;;;22.03;100.00;101169.34;5001771;28;20024;-69
2021/09/26 07:45:10;;;;;;;;;;;;;;;22.19;100.00;101171.06;4994092;28;19934;-69
2021/09/26 07:47:37;;;;;;;;;;;;;;;22.30;100.00;101163.31;4992958;28;19926;-70
2021/09/26 07:50:05;;;;;;;;;;;;;;;22.32;100.00;101161.22;4993021;28;20020;-70
2021/09/26 07:52:31;;;;;;;;;;;;;;;22.61;100.00;101162.25;5004950;28;19957;-69
2021/09/26 07:54:57;;;;;;;;;;;;;;;23.10;100.00;101163.47;5007119;28;19925;-69
2021/09/26 07:57:24;;;;;;;;;;;;;;;23.03;100.00;101158.69;4994305;28;20044;-70
2021/09/26 07:59:50;;;;;;;;;;;;;;;22.99;100.00;101156.53;5012305;28;19932;-70
2021/09/26 08:02:16;;;;;;;;;;;;;;;23.24;100.00;101154.28;5013201;28;19964;-69
2021/09/26 08:04:43;;;;;;;;;;;;;;;23.30;100.00;101158.16;5012146;28;19964;-69
2021/09/26 08:07:10;;;;;;;;;;;;;;;23.73;100.00;101158.06;5005840;28;19937;-71
2021/09/26 08:09:36;;;;;;;;;;;;;;;23.82;100.00;101156.88;4994326;28;20021;-70
2021/09/26 08:12:03;;;;;;;;;;;;;;;24.09;100.00;101146.00;4994869;28;20452;-68
2021/09/26 08:14:30;;;;;;;;;;;;;;;24.12;100.00;101141.94;4994189;28;19925;-68
2021/09/26 08:16:56;;;;;;;;;;;;;;;24.16;100.00;101152.44;4995998;28;19992;-68
2021/09/26 08:19:22;;;;;;;;;;;;;;;23.90;100.00;101142.91;4993693;28;19964;-68
2021/09/26 08:21:49;;;;;;;;;;;;;;;24.02;100.00;101153.41;5000159;28;20384;-68
2021/09/26 08:24:16;;;;;;;;;;;;;;;24.14;100.00;101149.00;5013562;28;19934;-68
2021/09/26 08:26:43;;;;;;;;;;;;;;;24.16;100.00;101152.44;5008679;28;20469;-68
2021/09/26 08:29:09;;;;;;;;;;;;;;;24.05;100.00;101156.66;5013340;28;20045;-68
2021/09/26 08:31:35;;;;;;;;;;;;;;;24.06;100.00;101151.94;5008854;28;19940;-68
2021/09/26 08:34:01;;;;;;;;;;;;;;;24.16;100.00;101151.56;4993774;28;19965;-68
2021/09/26 08:36:28;;;;;;;;;;;;;;;24.12;100.00;101151.16;4993081;28;20308;-68
2021/09/26 08:38:54;;;;;;;;;;;;;;;24.52;100.00;101145.78;5006242;28;20033;-68
2021/09/26 08:41:22;;;;;;;;;;;;;;;24.69;100.00;101148.22;5012716;28;19968;-68
2021/09/26 08:43:49;;;;;;;;;;;;;;;24.37;100.00;101154.28;5002209;28;19972;-68
2021/09/26 08:46:16;;;;;;;;;;;;;;;24.77;100.00;101159.13;4993448;28;19976;-68
2021/09/26 08:48:43;;;;;;;;;;;;;;;25.31;100.00;101150.91;4993281;28;20020;-75
2021/09/26 08:51:09;;;;;;;;;;;;;;;25.57;100.00;101147.31;4993625;28;20374;-75
2021/09/26 08:53:36;;;;;;;;;;;;;;;25.38;100.00;101138.78;5001297;28;19937;-75
2021/09/26 08:56:02;;;;;;;;;;;;;;;25.58;100.00;101148.19;5011117;28;20405;-75
2021/09/26 08:58:30;;;;;;;;;;;;;;;25.73;100.00;101146.91;4994900;28;19933;-75
2021/09/26 09:00:56;;;;;;;;;;;;;;;25.49;100.00;101150.31;4993092;28;20397;-75
2021/09/26 09:03:22;;;;;;;;;;;;;;;26.16;100.00;101151.16;5007791;28;20020;-75
2021/09/26 09:05:51;;;;;;;;;;;;;;;26.32;100.00;101147.00;5012871;28;19969;-75
2021/09/26 09:08:18;;;;;;;;;;;;;;;26.16;100.00;101144.72;5007100;28;19925;-75
2021/09/26 09:10:46;;;;;;;;;;;;;;;25.87;100.00;101144.97;5009454;28;19929;-75
2021/09/26 09:13:13;;;;;;;;;;;;;;;26.00;100.00;101144.09;5005079;28;19933;-76
2021/09/26 09:15:41;;;;;;;;;;;;;;;26.26;100.00;101142.34;5007881;28;20025;-75
2021/09/26 09:18:08;;;;;;;;;;;;;;;26.41;100.00;101136.50;5012233;28;20016;-75
2021/09/26 09:20:35;;;;;;;;;;;;;;;26.32;100.00;101132.25;5012186;28;20012;-76
2021/09/26 09:23:07;;;;;;;;;;;;;;;26.15;100.00;101138.31;5012570;28;19926;-75
2021/09/26 09:25:36;;;;;;;;;;;;;;;26.25;100.00;101143.41;5012110;28;19960;-75
2021/09/26 09:28:03;;;;;;;;;;;;;;;25.89;100.00;101141.97;5012207;28;19925;-75
2021/09/26 09:30:31;;;;;;;;;;;;;;;25.61;100.00;101131.94;5010942;28;19925;-76
2021/09/26 09:32:59;;;;;;;;;;;;;;;25.67;100.00;101138.56;5012373;28;20020;-75
2021/09/26 09:35:28;;;;;;;;;;;;;;;25.83;100.00;101140.91;5012385;28;19926;-75
2021/09/26 09:37:55;;;;;;;;;;;;;;;25.76;100.00;101134.47;5009920;28;19926;-75
2021/09/26 09:40:21;;;;;;;;;;;;;;;25.80;100.00;101127.44;4997583;28;19961;-75
2021/09/26 09:42:49;;;;;;;;;;;;;;;25.96;100.00;101126.09;4995584;28;19957;-75
2021/09/26 09:45:16;;;;;;;;;;;;;;;25.74;100.00;101125.50;5005340;28;20025;-66
2021/09/26 09:48:13;;;;;;;;;;;;;;;26.06;100.00;101137.66;4992471;28;19957;-66
2021/09/26 09:50:51;;;;;;;;;;;;;;;25.84;100.00;101131.50;4936197;29;19962;-66
2021/09/26 09:53:31;;;;;;;;;;;;;;;25.99;100.00;101122.03;4986117;28;19972;-66
2021/09/26 09:55:59;;;;;;;;;;;;;;;26.17;100.00;101118.59;5000087;28;19980;-66
2021/09/26 09:58:25;;;;;;;;;;;;;;;26.71;100.00;101117.34;4997729;28;19973;-66
2021/09/26 10:00:53;;;;;;;;;;;;;;;26.52;100.00;101118.25;4991784;28;20009;-66
2021/09/26 10:03:38;;;;;;;;;;;;;;;26.25;100.00;101112.78;5000902;28;20024;-66
2021/09/26 10:06:18;;;;;;;;;;;;;;;25.89;100.00;101114.16;5011951;28;19971;-66
2021/09/26 10:08:45;;;;;;;;;;;;;;;25.96;100.00;101109.41;5003190;28;19930;-76
2021/09/26 10:11:11;;;;;;;;;;;;;;;25.84;100.00;101120.38;4992495;28;19930;-76
2021/09/26 10:13:38;;;;;;;;;;;;;;;25.71;100.00;101114.84;4998916;28;19976;-76
2021/09/26 10:16:06;;;;;;;;;;;;;;;25.62;100.00;101116.97;4995628;28;19926;-75
2021/09/26 10:18:32;;;;;;;;;;;;;;;25.95;100.00;101116.06;4998820;28;19926;-75
2021/09/26 10:20:58;;;;;;;;;;;;;;;26.33;100.00;101117.25;5017281;28;19930;-76
2021/09/26 10:23:26;;;;;;;;;;;;;;;26.91;100.00;101124.69;5020181;28;19957;-76
2021/09/26 10:25:54;;;;;;;;;;;;;;;27.16;100.00;101118.31;5020178;28;19964;-75
2021/09/26 10:28:23;;;;;;;;;;;;;;;27.11;97.11;101113.44;5017352;28;19988;-75
2021/09/26 10:30:50;;;;;;;;;;;;;;;27.20;100.00;101116.78;4997607;28;19925;-75
2021/09/26 10:33:16;;;;;;;;;;;;;;;26.86;100.00;101113.41;4996173;28;19926;-75
2021/09/26 10:35:44;;;;;;;;;;;;;;;26.87;98.83;101107.59;4996234;28;20020;-75
2021/09/26 10:38:11;;;;;;;;;;;;;;;26.32;98.25;101121.13;4996058;28;19965;-75
2021/09/26 10:40:39;;;;;;;;;;;;;;;26.44;100.00;101111.00;4995627;28;19926;-75
2021/09/26 10:43:16;;;;;;;;;;;;;;;26.15;100.00;101104.91;4995618;28;20028;-75
2021/09/26 10:45:43;;;;;;;;;;;;;;;26.35;100.00;101109.53;5000277;28;19968;-74
2021/09/26 10:48:09;;;;;;;;;;;;;;;26.23;100.00;101107.44;5015270;28;20024;-75
2021/09/26 10:50:36;;;;;;;;;;;;;;;26.43;100.00;101102.88;5005728;28;19925;-75
2021/09/26 10:53:10;;;;;;;;;;;;;;;26.15;100.00;101093.78;4995762;28;20017;-75
2021/09/26 10:55:36;;;;;;;;;;;;;;;26.16;100.00;101095.50;5003430;28;19980;-74
2021/09/26 10:58:11;;;;;;;;;;;;;;;26.26;100.00;101096.94;5015097;28;20401;-75
2021/09/26 11:00:39;;;;;;;;;;;;;;;26.20;100.00;101094.00;4998512;28;19961;-75
2021/09/26 11:03:06;;;;;;;;;;;;;;;26.23;100.00;101089.91;4995334;28;19980;-74
2021/09/26 11:05:40;;;;;;;;;;;;;;;26.22;100.00;101094.63;4994614;28;20125;-75
2021/09/26 11:08:08;;;;;;;;;;;;;;;26.29;100.00;101094.59;4993845;28;19988;-75
2021/09/26 11:10:39;;;;;;;;;;;;;;;25.86;100.00;101087.63;5011836;28;19929;-74
2021/09/26 11:13:23;;;;;;;;;;;;;;;25.65;100.00;101087.91;5016470;28;20004;-74
2021/09/26 11:16:01;;;;;;;;;;;;;;;25.67;100.00;101085.75;5015264;28;19999;-74
2021/09/26 11:18:47;;;;;;;;;;;;;;;25.31;100.00;101081.47;5000061;28;20017;-76
2021/09/26 11:21:28;;;;;;;;;;;;;;;25.39;100.00;101081.31;4995217;28;19969;-75
2021/09/26 11:23:59;;;;;;;;;;;;;;;25.17;100.00;101081.47;4993250;28;20008;-75
2021/09/26 11:26:25;;;;;;;;;;;;;;;25.26;100.00;101078.50;4994319;28;20362;-75
2021/09/26 11:28:58;;;;;;;;;;;;;;;25.28;100.00;101077.22;4994691;28;19953;-75
2021/09/26 11:31:40;;;;;;;;;;;;;;;24.90;100.00;101080.59;4993396;28;20397;-75
2021/09/26 11:34:06;;;;;;;;;;;;;;;24.73;100.00;101078.22;4994620;28;19973;-76
2021/09/26 11:36:33;;;;;;;;;;;;;;;24.94;100.00;101072.72;4994534;28;20029;-75
2021/09/26 11:39:22;;;;;;;;;;;;;;;25.23;100.00;101063.13;4994019;28;19926;-75
2021/09/26 11:41:48;;;;;;;;;;;;;;;25.68;100.00;101066.09;4994756;28;20137;-75
2021/09/26 11:44:16;;;;;;;;;;;;;;;26.11;100.00;101064.72;4993915;28;20018;-75
2021/09/26 11:46:46;;;;;;;;;;;;;;;26.01;100.00;101051.22;4994207;28;20012;-75
2021/09/26 11:49:12;;;;;;;;;;;;;;;25.93;100.00;101062.59;4994161;28;20469;-75
2021/09/26 11:51:39;;;;;;;;;;;;;;;25.86;100.00;101054.28;4994249;28;20020;-75
2021/09/26 11:54:06;;;;;;;;;;;;;;;26.03;100.00;101054.69;4994395;28;19925;-75
2021/09/26 11:56:33;;;;;;;;;;;;;;;25.79;100.00;101050.66;4994163;28;19965;-75
2021/09/26 11:59:00;;;;;;;;;;;;;;;25.96;100.00;101051.03;4993052;28;19933;-75
2021/09/26 12:01:35;;;;;;;;;;;;;;;26.31;98.54;101047.06;4994293;28;19976;-75
2021/09/26 12:04:13;;;;;;;;;;;;;;;26.12;98.49;101048.88;4994324;28;19926;-75
2021/09/26 12:06:40;;;;;;;;;;;;;;;26.29;97.05;101050.06;4994013;28;19965;-75
2021/09/26 12:09:07;;;;;;;;;;;;;;;26.12;96.20;101049.72;4994102;28;20032;-75
2021/09/26 12:11:45;;;;;;;;;;;;;;;25.93;99.71;101048.69;4994048;28;19988;-75
2021/09/26 12:14:12;;;;;;;;;;;;;;;25.30;100.00;101046.44;4994167;28;19953;-75
2021/09/26 12:16:38;;;;;;;;;;;;;;;25.53;100.00;101044.06;4993940;28;20020;-68
2021/09/26 12:19:04;;;;;;;;;;;;;;;25.68;100.00;101043.84;4994757;28;20004;-68
2021/09/26 12:21:34;;;;;;;;;;;;;;;26.09;98.94;101044.59;4994226;28;19961;-68
2021/09/26 12:24:03;;;;;;;;;;;;;;;26.56;97.14;101042.44;5012067;28;20304;-68
2021/09/26 12:26:33;;;;;;;;;;;;;;;26.97;91.65;101033.84;4996095;28;20036;-68
2021/09/26 12:29:01;;;;;;;;;;;;;;;27.15;87.37;101038.59;4995881;28;20044;-68
2021/09/26 12:31:27;;;;;;;;;;;;;;;27.40;89.07;101042.25;5003121;28;19980;-68